sensor_id;sensor_type;location;lat;lon;timestamp;temperature;humidity
42913;DHT22;50720;54.324;18.558;2024-03-25T00:00:45;4.50;99.90
42913;DHT22;50720;54.324;18.558;2024-03-25T00:03:27;4.40;99.90
42913;DHT22;50720;54.324;18.558;2024-03-25T00:06:09;4.40;99.90
42913;DHT22;50720;54.324;18.558;2024-03-25T00:08:51;4.40;99.90
42913;DHT22;50720;54.324;18.558;2024-03-25T00:11:34;4.50;99.90
42913;DHT22;50720;54.324;18.558;2024-03-25T00:16:58;4.30;99.90
42913;DHT22;50720;54.324;18.558;2024-03-25T00:19:41;4.30;99.90
42913;DHT22;50720;54.324;18.558;2024-03-25T00:22:23;4.30;99.90
42913;DHT22;50720;54.324;18.558;2024-03-25T00:25:07;4.40;99.90
42913;DHT22;50720;54.324;18.558;2024-03-25T00:27:50;4.40;99.90
42913;DHT22;50720;54.324;18.558;2024-03-25T00:30:32;4.30;99.90
42913;DHT22;50720;54.324;18.558;2024-03-25T00:35:57;4.20;99.90
42913;DHT22;50720;54.324;18.558;2024-03-25T00:38:39;4.20;99.90
42913;DHT22;50720;54.324;18.558;2024-03-25T00:41:21;4.20;99.90
42913;DHT22;50720;54.324;18.558;2024-03-25T00:44:04;4.20;99.90
42913;DHT22;50720;54.324;18.558;2024-03-25T00:49:28;4.10;99.90
42913;DHT22;50720;54.324;18.558;2024-03-25T00:54:53;4.10;99.90
42913;DHT22;50720;54.324;18.558;2024-03-25T01:00:19;4.20;99.90
42913;DHT22;50720;54.324;18.558;2024-03-25T01:03:01;4.20;99.90
42913;DHT22;50720;54.324;18.558;2024-03-25T01:05:43;4.10;99.90
42913;DHT22;50720;54.324;18.558;2024-03-25T01:08:25;4.20;99.90
42913;DHT22;50720;54.324;18.558;2024-03-25T01:11:08;4.10;99.90
42913;DHT22;50720;54.324;18.558;2024-03-25T01:13:49;4.10;99.90
42913;DHT22;50720;54.324;18.558;2024-03-25T01:16:33;4.10;99.90
42913;DHT22;50720;54.324;18.558;2024-03-25T01:19:14;4.10;99.90
42913;DHT22;50720;54.324;18.558;2024-03-25T01:24:39;4.10;99.90
42913;DHT22;50720;54.324;18.558;2024-03-25T01:30:03;4.00;99.90
42913;DHT22;50720;54.324;18.558;2024-03-25T01:32:48;3.90;99.90
42913;DHT22;50720;54.324;18.558;2024-03-25T01:35:29;3.90;99.90
42913;DHT22;50720;54.324;18.558;2024-03-25T01:38:11;3.90;99.90
42913;DHT22;50720;54.324;18.558;2024-03-25T01:40:53;3.90;99.90
42913;DHT22;50720;54.324;18.558;2024-03-25T01:43:37;3.90;99.90
42913;DHT22;50720;54.324;18.558;2024-03-25T01:46:19;3.90;99.90
42913;DHT22;50720;54.324;18.558;2024-03-25T01:49:04;3.90;99.90
42913;DHT22;50720;54.324;18.558;2024-03-25T01:51:46;3.90;99.90
42913;DHT22;50720;54.324;18.558;2024-03-25T01:57:10;3.90;99.90
42913;DHT22;50720;54.324;18.558;2024-03-25T01:59:53;3.80;99.90
42913;DHT22;50720;54.324;18.558;2024-03-25T02:02:35;3.90;99.90
42913;DHT22;50720;54.324;18.558;2024-03-25T02:05:21;4.00;99.90
42913;DHT22;50720;54.324;18.558;2024-03-25T02:08:03;4.00;99.90
42913;DHT22;50720;54.324;18.558;2024-03-25T02:10:47;4.00;99.90
42913;DHT22;50720;54.324;18.558;2024-03-25T02:13:28;4.00;99.90
42913;DHT22;50720;54.324;18.558;2024-03-25T02:16:11;4.00;99.90
42913;DHT22;50720;54.324;18.558;2024-03-25T02:18:53;4.00;99.90
42913;DHT22;50720;54.324;18.558;2024-03-25T02:21:37;3.90;99.90
42913;DHT22;50720;54.324;18.558;2024-03-25T02:24:20;3.90;99.90
42913;DHT22;50720;54.324;18.558;2024-03-25T02:27:04;3.90;99.90
42913;DHT22;50720;54.324;18.558;2024-03-25T02:29:49;3.90;99.90
42913;DHT22;50720;54.324;18.558;2024-03-25T02:32:31;3.90;99.90
42913;DHT22;50720;54.324;18.558;2024-03-25T02:35:15;3.90;99.90
42913;DHT22;50720;54.324;18.558;2024-03-25T02:37:58;4.00;99.90
42913;DHT22;50720;54.324;18.558;2024-03-25T02:40:40;4.00;99.90
42913;DHT22;50720;54.324;18.558;2024-03-25T02:43:25;4.00;99.90
42913;DHT22;50720;54.324;18.558;2024-03-25T02:46:06;4.00;99.90
42913;DHT22;50720;54.324;18.558;2024-03-25T02:48:49;4.00;99.90
42913;DHT22;50720;54.324;18.558;2024-03-25T02:54:13;4.10;99.90
42913;DHT22;50720;54.324;18.558;2024-03-25T02:56:55;4.00;99.90
42913;DHT22;50720;54.324;18.558;2024-03-25T02:59:39;4.00;99.90
42913;DHT22;50720;54.324;18.558;2024-03-25T03:02:21;4.00;99.90
42913;DHT22;50720;54.324;18.558;2024-03-25T03:07:45;4.00;99.90
42913;DHT22;50720;54.324;18.558;2024-03-25T03:10:27;4.00;99.90
42913;DHT22;50720;54.324;18.558;2024-03-25T03:13:09;4.00;99.90
42913;DHT22;50720;54.324;18.558;2024-03-25T03:15:53;4.00;99.90
42913;DHT22;50720;54.324;18.558;2024-03-25T03:18:35;4.10;99.90
42913;DHT22;50720;54.324;18.558;2024-03-25T03:23:59;4.20;99.90
42913;DHT22;50720;54.324;18.558;2024-03-25T03:26:41;4.20;99.90
42913;DHT22;50720;54.324;18.558;2024-03-25T03:29:23;4.20;99.90
42913;DHT22;50720;54.324;18.558;2024-03-25T03:32:07;4.10;99.90
42913;DHT22;50720;54.324;18.558;2024-03-25T03:34:49;4.10;99.90
42913;DHT22;50720;54.324;18.558;2024-03-25T03:40:14;4.00;99.90
42913;DHT22;50720;54.324;18.558;2024-03-25T03:42:57;4.10;99.90
42913;DHT22;50720;54.324;18.558;2024-03-25T03:45:38;4.00;99.90
42913;DHT22;50720;54.324;18.558;2024-03-25T03:48:22;4.00;99.90
42913;DHT22;50720;54.324;18.558;2024-03-25T03:51:03;4.10;99.90
42913;DHT22;50720;54.324;18.558;2024-03-25T03:53:46;4.20;99.90
42913;DHT22;50720;54.324;18.558;2024-03-25T03:56:27;4.10;99.90
42913;DHT22;50720;54.324;18.558;2024-03-25T03:59:10;4.00;99.90
42913;DHT22;50720;54.324;18.558;2024-03-25T04:04:36;4.00;99.90
42913;DHT22;50720;54.324;18.558;2024-03-25T04:07:17;3.90;99.90
42913;DHT22;50720;54.324;18.558;2024-03-25T04:12:41;4.00;99.90
42913;DHT22;50720;54.324;18.558;2024-03-25T04:15:24;4.00;99.90
42913;DHT22;50720;54.324;18.558;2024-03-25T04:18:05;4.10;99.90
42913;DHT22;50720;54.324;18.558;2024-03-25T04:20:49;4.20;99.90
42913;DHT22;50720;54.324;18.558;2024-03-25T04:23:30;4.20;99.90
42913;DHT22;50720;54.324;18.558;2024-03-25T04:26:13;4.20;99.90
42913;DHT22;50720;54.324;18.558;2024-03-25T04:31:37;4.10;99.90
42913;DHT22;50720;54.324;18.558;2024-03-25T04:34:18;4.10;99.90
42913;DHT22;50720;54.324;18.558;2024-03-25T04:37:03;4.10;99.90
42913;DHT22;50720;54.324;18.558;2024-03-25T04:39:45;4.10;99.90
42913;DHT22;50720;54.324;18.558;2024-03-25T04:42:26;4.20;99.90
42913;DHT22;50720;54.324;18.558;2024-03-25T04:45:08;4.20;99.90
42913;DHT22;50720;54.324;18.558;2024-03-25T04:47:50;4.10;99.90
42913;DHT22;50720;54.324;18.558;2024-03-25T04:50:31;4.10;99.90
42913;DHT22;50720;54.324;18.558;2024-03-25T04:53:14;4.10;99.90
42913;DHT22;50720;54.324;18.558;2024-03-25T04:55:55;4.10;99.90
42913;DHT22;50720;54.324;18.558;2024-03-25T04:58:37;4.20;99.90
42913;DHT22;50720;54.324;18.558;2024-03-25T05:01:19;4.20;99.90
42913;DHT22;50720;54.324;18.558;2024-03-25T05:04:01;4.20;99.90
42913;DHT22;50720;54.324;18.558;2024-03-25T05:06:42;4.20;99.90
42913;DHT22;50720;54.324;18.558;2024-03-25T05:09:25;4.20;99.90
42913;DHT22;50720;54.324;18.558;2024-03-25T05:12:06;4.20;99.90
42913;DHT22;50720;54.324;18.558;2024-03-25T05:14:48;4.20;99.90
42913;DHT22;50720;54.324;18.558;2024-03-25T05:20:11;4.20;99.90
42913;DHT22;50720;54.324;18.558;2024-03-25T05:22:53;4.20;99.90
42913;DHT22;50720;54.324;18.558;2024-03-25T05:25:36;4.30;99.90
42913;DHT22;50720;54.324;18.558;2024-03-25T05:28:17;4.30;99.90
42913;DHT22;50720;54.324;18.558;2024-03-25T05:31:05;4.50;99.90
42913;DHT22;50720;54.324;18.558;2024-03-25T05:36:28;4.60;99.90
42913;DHT22;50720;54.324;18.558;2024-03-25T05:39:10;4.50;99.90
42913;DHT22;50720;54.324;18.558;2024-03-25T05:41:52;4.50;99.90
42913;DHT22;50720;54.324;18.558;2024-03-25T05:44:34;4.60;99.90
42913;DHT22;50720;54.324;18.558;2024-03-25T05:49:57;4.60;99.90
42913;DHT22;50720;54.324;18.558;2024-03-25T05:52:38;4.60;99.90
42913;DHT22;50720;54.324;18.558;2024-03-25T05:58:03;4.80;99.90
42913;DHT22;50720;54.324;18.558;2024-03-25T06:00:47;4.80;99.90
42913;DHT22;50720;54.324;18.558;2024-03-25T06:03:28;4.80;99.90
42913;DHT22;50720;54.324;18.558;2024-03-25T06:06:10;4.90;99.90
42913;DHT22;50720;54.324;18.558;2024-03-25T06:08:51;4.90;99.90
42913;DHT22;50720;54.324;18.558;2024-03-25T06:11:33;4.90;99.90
42913;DHT22;50720;54.324;18.558;2024-03-25T06:14:16;5.10;99.90
42913;DHT22;50720;54.324;18.558;2024-03-25T06:16:57;5.10;99.90
42913;DHT22;50720;54.324;18.558;2024-03-25T06:19:39;5.10;99.90
42913;DHT22;50720;54.324;18.558;2024-03-25T06:22:20;5.10;99.90
42913;DHT22;50720;54.324;18.558;2024-03-25T06:25:02;5.10;99.90
42913;DHT22;50720;54.324;18.558;2024-03-25T06:27:44;5.30;99.90
42913;DHT22;50720;54.324;18.558;2024-03-25T06:30:26;5.20;99.90
42913;DHT22;50720;54.324;18.558;2024-03-25T06:33:26;5.20;99.90
42913;DHT22;50720;54.324;18.558;2024-03-25T06:39:08;5.60;99.90
42913;DHT22;50720;54.324;18.558;2024-03-25T06:41:49;5.60;99.90
42913;DHT22;50720;54.324;18.558;2024-03-25T06:47:14;5.50;99.90
42913;DHT22;50720;54.324;18.558;2024-03-25T06:52:37;5.70;99.90
42913;DHT22;50720;54.324;18.558;2024-03-25T06:55:18;5.70;99.90
42913;DHT22;50720;54.324;18.558;2024-03-25T07:00:41;5.90;99.90
42913;DHT22;50720;54.324;18.558;2024-03-25T07:03:24;6.00;99.90
42913;DHT22;50720;54.324;18.558;2024-03-25T07:06:05;6.10;99.90
42913;DHT22;50720;54.324;18.558;2024-03-25T07:08:47;6.20;99.90
42913;DHT22;50720;54.324;18.558;2024-03-25T07:14:10;6.00;99.90
42913;DHT22;50720;54.324;18.558;2024-03-25T07:16:51;6.00;99.90
42913;DHT22;50720;54.324;18.558;2024-03-25T07:19:34;5.80;99.90
42913;DHT22;50720;54.324;18.558;2024-03-25T07:22:16;5.90;99.90
42913;DHT22;50720;54.324;18.558;2024-03-25T07:24:57;6.00;99.90
42913;DHT22;50720;54.324;18.558;2024-03-25T07:27:38;6.10;99.90
42913;DHT22;50720;54.324;18.558;2024-03-25T07:30:20;6.30;99.90
42913;DHT22;50720;54.324;18.558;2024-03-25T07:33:02;6.30;99.90
42913;DHT22;50720;54.324;18.558;2024-03-25T07:35:46;6.50;99.90
42913;DHT22;50720;54.324;18.558;2024-03-25T07:38:27;6.80;99.90
42913;DHT22;50720;54.324;18.558;2024-03-25T07:41:09;6.70;99.90
42913;DHT22;50720;54.324;18.558;2024-03-25T07:43:50;6.80;99.90
42913;DHT22;50720;54.324;18.558;2024-03-25T07:46:32;7.00;99.90
42913;DHT22;50720;54.324;18.558;2024-03-25T07:49:13;7.10;99.90
42913;DHT22;50720;54.324;18.558;2024-03-25T07:51:56;7.20;99.90
42913;DHT22;50720;54.324;18.558;2024-03-25T07:57:19;7.20;99.90
42913;DHT22;50720;54.324;18.558;2024-03-25T08:00:00;7.20;99.90
42913;DHT22;50720;54.324;18.558;2024-03-25T08:05:23;7.40;99.90
42913;DHT22;50720;54.324;18.558;2024-03-25T08:08:07;7.50;99.90
42913;DHT22;50720;54.324;18.558;2024-03-25T08:10:48;7.60;99.90
42913;DHT22;50720;54.324;18.558;2024-03-25T08:13:29;7.70;99.90
42913;DHT22;50720;54.324;18.558;2024-03-25T08:16:11;7.60;99.90
42913;DHT22;50720;54.324;18.558;2024-03-25T08:18:52;7.80;99.90
42913;DHT22;50720;54.324;18.558;2024-03-25T08:21:34;7.90;99.90
42913;DHT22;50720;54.324;18.558;2024-03-25T08:24:16;7.90;99.90
42913;DHT22;50720;54.324;18.558;2024-03-25T08:26:58;8.00;99.90
42913;DHT22;50720;54.324;18.558;2024-03-25T08:32:21;8.10;99.90
42913;DHT22;50720;54.324;18.558;2024-03-25T08:35:03;8.30;99.90
42913;DHT22;50720;54.324;18.558;2024-03-25T08:37:44;8.30;99.90
42913;DHT22;50720;54.324;18.558;2024-03-25T08:40:27;8.20;99.90
42913;DHT22;50720;54.324;18.558;2024-03-25T08:43:08;8.10;99.90
42913;DHT22;50720;54.324;18.558;2024-03-25T08:45:50;8.00;99.90
42913;DHT22;50720;54.324;18.558;2024-03-25T08:48:31;8.10;99.90
42913;DHT22;50720;54.324;18.558;2024-03-25T08:53:54;8.10;99.90
42913;DHT22;50720;54.324;18.558;2024-03-25T08:56:37;8.10;99.90
42913;DHT22;50720;54.324;18.558;2024-03-25T08:59:19;8.30;99.90
42913;DHT22;50720;54.324;18.558;2024-03-25T09:02:00;8.30;99.90
42913;DHT22;50720;54.324;18.558;2024-03-25T09:07:23;8.40;99.90
42913;DHT22;50720;54.324;18.558;2024-03-25T09:10:05;8.30;99.90
42913;DHT22;50720;54.324;18.558;2024-03-25T09:13:06;8.50;99.90
42913;DHT22;50720;54.324;18.558;2024-03-25T09:15:48;8.80;99.90
42913;DHT22;50720;54.324;18.558;2024-03-25T09:18:29;9.10;99.90
42913;DHT22;50720;54.324;18.558;2024-03-25T09:23:52;9.20;99.90
42913;DHT22;50720;54.324;18.558;2024-03-25T09:26:34;9.40;99.90
42913;DHT22;50720;54.324;18.558;2024-03-25T09:29:17;9.20;99.90
42913;DHT22;50720;54.324;18.558;2024-03-25T09:31:58;9.40;99.90
42913;DHT22;50720;54.324;18.558;2024-03-25T09:37:21;9.30;99.90
42913;DHT22;50720;54.324;18.558;2024-03-25T09:40:03;9.40;99.90
42913;DHT22;50720;54.324;18.558;2024-03-25T09:42:48;9.30;99.90
42913;DHT22;50720;54.324;18.558;2024-03-25T09:45:32;9.40;99.90
42913;DHT22;50720;54.324;18.558;2024-03-25T09:48:16;9.60;99.90
42913;DHT22;50720;54.324;18.558;2024-03-25T09:50:57;9.40;99.90
42913;DHT22;50720;54.324;18.558;2024-03-25T09:53:39;9.30;99.90
42913;DHT22;50720;54.324;18.558;2024-03-25T09:56:20;9.50;99.90
42913;DHT22;50720;54.324;18.558;2024-03-25T09:59:02;9.50;99.90
42913;DHT22;50720;54.324;18.558;2024-03-25T10:01:45;9.60;99.90
42913;DHT22;50720;54.324;18.558;2024-03-25T10:04:26;9.50;99.90
42913;DHT22;50720;54.324;18.558;2024-03-25T10:07:08;9.70;99.90
42913;DHT22;50720;54.324;18.558;2024-03-25T10:12:31;9.90;99.90
42913;DHT22;50720;54.324;18.558;2024-03-25T10:15:15;10.20;99.90
42913;DHT22;50720;54.324;18.558;2024-03-25T10:17:58;10.10;99.90
42913;DHT22;50720;54.324;18.558;2024-03-25T10:20:48;10.20;99.90
42913;DHT22;50720;54.324;18.558;2024-03-25T10:23:29;10.00;99.90
42913;DHT22;50720;54.324;18.558;2024-03-25T10:26:27;9.90;99.90
42913;DHT22;50720;54.324;18.558;2024-03-25T10:29:08;9.90;99.90
42913;DHT22;50720;54.324;18.558;2024-03-25T10:31:59;9.90;99.90
42913;DHT22;50720;54.324;18.558;2024-03-25T10:34:42;10.10;99.90
42913;DHT22;50720;54.324;18.558;2024-03-25T10:37:25;10.00;99.90
42913;DHT22;50720;54.324;18.558;2024-03-25T10:40:09;9.90;99.90
42913;DHT22;50720;54.324;18.558;2024-03-25T10:43:00;9.80;99.90
42913;DHT22;50720;54.324;18.558;2024-03-25T10:45:45;9.70;99.90
42913;DHT22;50720;54.324;18.558;2024-03-25T10:48:28;9.60;99.90
42913;DHT22;50720;54.324;18.558;2024-03-25T10:51:11;9.50;99.90
42913;DHT22;50720;54.324;18.558;2024-03-25T10:53:54;9.30;99.90
42913;DHT22;50720;54.324;18.558;2024-03-25T10:56:36;9.00;99.90
42913;DHT22;50720;54.324;18.558;2024-03-25T10:59:18;8.30;99.90
42913;DHT22;50720;54.324;18.558;2024-03-25T11:02:02;7.50;99.90
42913;DHT22;50720;54.324;18.558;2024-03-25T11:04:44;7.10;99.90
42913;DHT22;50720;54.324;18.558;2024-03-25T11:07:31;6.80;99.90
42913;DHT22;50720;54.324;18.558;2024-03-25T11:10:12;6.70;99.90
42913;DHT22;50720;54.324;18.558;2024-03-25T11:12:54;6.40;99.90
42913;DHT22;50720;54.324;18.558;2024-03-25T11:15:36;6.30;99.90
42913;DHT22;50720;54.324;18.558;2024-03-25T11:18:22;6.30;99.90
42913;DHT22;50720;54.324;18.558;2024-03-25T11:21:06;6.30;99.90
42913;DHT22;50720;54.324;18.558;2024-03-25T11:23:49;6.20;99.90
42913;DHT22;50720;54.324;18.558;2024-03-25T11:29:12;6.20;99.90
42913;DHT22;50720;54.324;18.558;2024-03-25T11:31:54;6.20;99.90
42913;DHT22;50720;54.324;18.558;2024-03-25T11:34:36;6.30;99.90
42913;DHT22;50720;54.324;18.558;2024-03-25T11:37:18;6.40;99.90
42913;DHT22;50720;54.324;18.558;2024-03-25T11:40:03;6.40;99.90
42913;DHT22;50720;54.324;18.558;2024-03-25T11:42:46;6.50;99.90
42913;DHT22;50720;54.324;18.558;2024-03-25T11:45:28;6.50;99.90
42913;DHT22;50720;54.324;18.558;2024-03-25T11:48:10;6.60;99.90
42913;DHT22;50720;54.324;18.558;2024-03-25T11:50:54;6.60;99.90
42913;DHT22;50720;54.324;18.558;2024-03-25T11:53:36;6.70;99.90
42913;DHT22;50720;54.324;18.558;2024-03-25T11:56:19;6.80;99.90
42913;DHT22;50720;54.324;18.558;2024-03-25T11:59:00;6.80;99.90
42913;DHT22;50720;54.324;18.558;2024-03-25T12:01:42;6.80;99.90
42913;DHT22;50720;54.324;18.558;2024-03-25T12:04:23;6.90;99.90
42913;DHT22;50720;54.324;18.558;2024-03-25T12:07:05;6.90;99.90
42913;DHT22;50720;54.324;18.558;2024-03-25T12:09:46;6.90;99.90
42913;DHT22;50720;54.324;18.558;2024-03-25T12:12:48;7.00;99.90
42913;DHT22;50720;54.324;18.558;2024-03-25T12:15:29;7.00;99.90
42913;DHT22;50720;54.324;18.558;2024-03-25T12:18:11;7.00;99.90
42913;DHT22;50720;54.324;18.558;2024-03-25T12:23:34;7.10;99.90
42913;DHT22;50720;54.324;18.558;2024-03-25T12:26:15;7.10;99.90
42913;DHT22;50720;54.324;18.558;2024-03-25T12:28:59;7.20;99.90
42913;DHT22;50720;54.324;18.558;2024-03-25T12:31:40;7.20;99.90
42913;DHT22;50720;54.324;18.558;2024-03-25T12:34:22;7.30;99.90
42913;DHT22;50720;54.324;18.558;2024-03-25T12:37:04;7.60;99.90
42913;DHT22;50720;54.324;18.558;2024-03-25T12:39:47;7.70;99.90
42913;DHT22;50720;54.324;18.558;2024-03-25T12:42:30;7.70;99.90
42913;DHT22;50720;54.324;18.558;2024-03-25T12:45:13;7.90;99.90
42913;DHT22;50720;54.324;18.558;2024-03-25T12:47:54;8.00;99.90
42913;DHT22;50720;54.324;18.558;2024-03-25T12:50:36;8.10;99.90
42913;DHT22;50720;54.324;18.558;2024-03-25T12:53:18;8.10;99.90
42913;DHT22;50720;54.324;18.558;2024-03-25T12:56:00;8.20;99.90
42913;DHT22;50720;54.324;18.558;2024-03-25T12:58:41;8.30;99.90
42913;DHT22;50720;54.324;18.558;2024-03-25T13:01:24;8.40;99.90
42913;DHT22;50720;54.324;18.558;2024-03-25T13:04:06;8.50;99.90
42913;DHT22;50720;54.324;18.558;2024-03-25T13:09:29;8.70;99.90
42913;DHT22;50720;54.324;18.558;2024-03-25T13:12:11;8.80;99.90
42913;DHT22;50720;54.324;18.558;2024-03-25T13:14:53;8.70;99.90
42913;DHT22;50720;54.324;18.558;2024-03-25T13:17:35;8.60;99.90
42913;DHT22;50720;54.324;18.558;2024-03-25T13:20:17;8.60;99.90
42913;DHT22;50720;54.324;18.558;2024-03-25T13:22:58;8.60;99.90
42913;DHT22;50720;54.324;18.558;2024-03-25T13:25:40;8.60;99.90
42913;DHT22;50720;54.324;18.558;2024-03-25T13:28:21;8.50;99.90
42913;DHT22;50720;54.324;18.558;2024-03-25T13:31:03;8.50;99.90
42913;DHT22;50720;54.324;18.558;2024-03-25T13:33:46;8.40;99.90
42913;DHT22;50720;54.324;18.558;2024-03-25T13:36:28;8.40;99.90
42913;DHT22;50720;54.324;18.558;2024-03-25T13:41:51;8.20;99.90
42913;DHT22;50720;54.324;18.558;2024-03-25T13:44:33;8.20;99.90
42913;DHT22;50720;54.324;18.558;2024-03-25T13:50:12;8.10;99.90
42913;DHT22;50720;54.324;18.558;2024-03-25T13:52:53;8.20;99.90
42913;DHT22;50720;54.324;18.558;2024-03-25T13:55:35;8.10;99.90
42913;DHT22;50720;54.324;18.558;2024-03-25T13:58:16;8.10;99.90
42913;DHT22;50720;54.324;18.558;2024-03-25T14:00:58;8.00;99.90
42913;DHT22;50720;54.324;18.558;2024-03-25T14:03:39;8.00;99.90
42913;DHT22;50720;54.324;18.558;2024-03-25T14:06:22;7.90;99.90
42913;DHT22;50720;54.324;18.558;2024-03-25T14:09:04;8.10;99.90
42913;DHT22;50720;54.324;18.558;2024-03-25T14:14:27;8.10;99.90
42913;DHT22;50720;54.324;18.558;2024-03-25T14:17:08;7.90;99.90
42913;DHT22;50720;54.324;18.558;2024-03-25T14:19:53;7.80;99.90
42913;DHT22;50720;54.324;18.558;2024-03-25T14:22:38;7.60;99.90
42913;DHT22;50720;54.324;18.558;2024-03-25T14:25:19;7.50;99.90
42913;DHT22;50720;54.324;18.558;2024-03-25T14:28:01;7.50;99.90
42913;DHT22;50720;54.324;18.558;2024-03-25T14:30:42;7.50;99.90
42913;DHT22;50720;54.324;18.558;2024-03-25T14:33:24;7.40;99.90
42913;DHT22;50720;54.324;18.558;2024-03-25T14:36:06;7.40;99.90
42913;DHT22;50720;54.324;18.558;2024-03-25T14:38:49;7.40;99.90
42913;DHT22;50720;54.324;18.558;2024-03-25T14:41:38;7.30;99.90
42913;DHT22;50720;54.324;18.558;2024-03-25T14:44:20;7.10;99.90
42913;DHT22;50720;54.324;18.558;2024-03-25T14:47:01;7.00;99.90
42913;DHT22;50720;54.324;18.558;2024-03-25T14:49:43;6.90;99.90
42913;DHT22;50720;54.324;18.558;2024-03-25T14:55:08;6.60;99.90
42913;DHT22;50720;54.324;18.558;2024-03-25T14:57:50;6.50;99.90
42913;DHT22;50720;54.324;18.558;2024-03-25T15:00:31;6.50;99.90
42913;DHT22;50720;54.324;18.558;2024-03-25T15:03:12;6.50;99.90
42913;DHT22;50720;54.324;18.558;2024-03-25T15:05:54;6.40;99.90
42913;DHT22;50720;54.324;18.558;2024-03-25T15:11:19;6.40;99.90
42913;DHT22;50720;54.324;18.558;2024-03-25T15:14:00;6.20;99.90
42913;DHT22;50720;54.324;18.558;2024-03-25T15:19:23;6.10;99.90
42913;DHT22;50720;54.324;18.558;2024-03-25T15:22:05;6.00;99.90
42913;DHT22;50720;54.324;18.558;2024-03-25T15:27:30;5.90;99.90
42913;DHT22;50720;54.324;18.558;2024-03-25T15:30:12;5.90;99.90
42913;DHT22;50720;54.324;18.558;2024-03-25T15:32:53;5.80;99.90
42913;DHT22;50720;54.324;18.558;2024-03-25T15:35:35;5.90;99.90
42913;DHT22;50720;54.324;18.558;2024-03-25T15:38:17;5.90;99.90
42913;DHT22;50720;54.324;18.558;2024-03-25T15:40:58;6.00;99.90
42913;DHT22;50720;54.324;18.558;2024-03-25T15:43:41;6.00;99.90
42913;DHT22;50720;54.324;18.558;2024-03-25T15:46:23;6.00;99.90
42913;DHT22;50720;54.324;18.558;2024-03-25T15:49:04;6.30;99.90
42913;DHT22;50720;54.324;18.558;2024-03-25T15:51:46;6.50;99.90
42913;DHT22;50720;54.324;18.558;2024-03-25T15:54:27;6.60;99.90
42913;DHT22;50720;54.324;18.558;2024-03-25T15:57:09;6.80;99.90
42913;DHT22;50720;54.324;18.558;2024-03-25T15:59:51;6.90;99.90
42913;DHT22;50720;54.324;18.558;2024-03-25T16:02:33;6.90;99.90
42913;DHT22;50720;54.324;18.558;2024-03-25T16:05:15;6.90;99.90
42913;DHT22;50720;54.324;18.558;2024-03-25T16:07:56;6.80;99.90
42913;DHT22;50720;54.324;18.558;2024-03-25T16:10:37;6.90;99.90
42913;DHT22;50720;54.324;18.558;2024-03-25T16:13:20;6.90;99.90
42913;DHT22;50720;54.324;18.558;2024-03-25T16:16:04;6.90;99.90
42913;DHT22;50720;54.324;18.558;2024-03-25T16:18:46;7.00;99.90
42913;DHT22;50720;54.324;18.558;2024-03-25T16:21:27;6.80;99.90
42913;DHT22;50720;54.324;18.558;2024-03-25T16:24:09;6.80;99.90
42913;DHT22;50720;54.324;18.558;2024-03-25T16:26:50;6.90;99.90
42913;DHT22;50720;54.324;18.558;2024-03-25T16:29:31;6.70;99.90
42913;DHT22;50720;54.324;18.558;2024-03-25T16:32:14;6.70;99.90
42913;DHT22;50720;54.324;18.558;2024-03-25T16:34:56;6.60;99.90
42913;DHT22;50720;54.324;18.558;2024-03-25T16:37:37;6.60;99.90
42913;DHT22;50720;54.324;18.558;2024-03-25T16:43:01;6.50;99.90
42913;DHT22;50720;54.324;18.558;2024-03-25T16:45:42;6.50;99.90
42913;DHT22;50720;54.324;18.558;2024-03-25T16:48:25;6.40;99.90
42913;DHT22;50720;54.324;18.558;2024-03-25T16:51:06;6.40;99.90
42913;DHT22;50720;54.324;18.558;2024-03-25T16:56:30;6.10;99.90
42913;DHT22;50720;54.324;18.558;2024-03-25T16:59:11;6.00;99.90
42913;DHT22;50720;54.324;18.558;2024-03-25T17:04:36;5.90;99.90
42913;DHT22;50720;54.324;18.558;2024-03-25T17:07:18;5.80;99.90
42913;DHT22;50720;54.324;18.558;2024-03-25T17:12:41;5.60;99.90
42913;DHT22;50720;54.324;18.558;2024-03-25T17:15:22;5.50;99.90
42913;DHT22;50720;54.324;18.558;2024-03-25T17:18:09;5.40;99.90
42913;DHT22;50720;54.324;18.558;2024-03-25T17:20:59;5.40;99.90
42913;DHT22;50720;54.324;18.558;2024-03-25T17:23:41;5.30;99.90
42913;DHT22;50720;54.324;18.558;2024-03-25T17:26:22;5.30;99.90
42913;DHT22;50720;54.324;18.558;2024-03-25T17:29:04;5.20;99.90
42913;DHT22;50720;54.324;18.558;2024-03-25T17:31:48;5.20;99.90
42913;DHT22;50720;54.324;18.558;2024-03-25T17:34:29;5.10;99.90
42913;DHT22;50720;54.324;18.558;2024-03-25T17:37:13;5.00;99.90
42913;DHT22;50720;54.324;18.558;2024-03-25T17:39:54;5.00;99.90
42913;DHT22;50720;54.324;18.558;2024-03-25T17:42:35;5.10;99.90
42913;DHT22;50720;54.324;18.558;2024-03-25T17:45:17;5.10;99.90
42913;DHT22;50720;54.324;18.558;2024-03-25T17:47:58;5.00;99.90
42913;DHT22;50720;54.324;18.558;2024-03-25T17:53:23;5.00;99.90
42913;DHT22;50720;54.324;18.558;2024-03-25T17:56:05;5.00;99.90
42913;DHT22;50720;54.324;18.558;2024-03-25T18:01:28;5.00;99.90
42913;DHT22;50720;54.324;18.558;2024-03-25T18:04:09;5.00;99.90
42913;DHT22;50720;54.324;18.558;2024-03-25T18:09:34;5.10;99.90
42913;DHT22;50720;54.324;18.558;2024-03-25T18:12:15;5.10;99.90
42913;DHT22;50720;54.324;18.558;2024-03-25T18:14:57;5.10;99.90
42913;DHT22;50720;54.324;18.558;2024-03-25T18:17:38;5.20;99.90
42913;DHT22;50720;54.324;18.558;2024-03-25T18:23:02;5.10;99.90
42913;DHT22;50720;54.324;18.558;2024-03-25T18:25:45;5.00;99.90
42913;DHT22;50720;54.324;18.558;2024-03-25T18:28:26;5.00;99.90
42913;DHT22;50720;54.324;18.558;2024-03-25T18:31:08;5.00;99.90
42913;DHT22;50720;54.324;18.558;2024-03-25T18:33:49;5.00;99.90
42913;DHT22;50720;54.324;18.558;2024-03-25T18:36:31;5.00;99.90
42913;DHT22;50720;54.324;18.558;2024-03-25T18:39:12;4.90;99.90
42913;DHT22;50720;54.324;18.558;2024-03-25T18:41:55;5.00;99.90
42913;DHT22;50720;54.324;18.558;2024-03-25T18:44:37;4.90;99.90
42913;DHT22;50720;54.324;18.558;2024-03-25T18:47:18;4.90;99.90
42913;DHT22;50720;54.324;18.558;2024-03-25T18:52:42;4.80;99.90
42913;DHT22;50720;54.324;18.558;2024-03-25T18:55:23;4.80;99.90
42913;DHT22;50720;54.324;18.558;2024-03-25T18:58:06;4.80;99.90
42913;DHT22;50720;54.324;18.558;2024-03-25T19:00:48;4.80;99.90
42913;DHT22;50720;54.324;18.558;2024-03-25T19:03:29;4.70;99.90
42913;DHT22;50720;54.324;18.558;2024-03-25T19:08:52;4.40;99.90
42913;DHT22;50720;54.324;18.558;2024-03-25T19:11:34;4.40;99.90
42913;DHT22;50720;54.324;18.558;2024-03-25T19:14:17;4.40;99.90
42913;DHT22;50720;54.324;18.558;2024-03-25T19:16:58;4.40;99.90
42913;DHT22;50720;54.324;18.558;2024-03-25T19:19:40;4.40;99.90
42913;DHT22;50720;54.324;18.558;2024-03-25T19:22:21;4.40;99.90
42913;DHT22;50720;54.324;18.558;2024-03-25T19:25:03;4.40;99.90